Time;durP1;ratioP1;P1;durP2;ratioP2;P2;SDS_P1;SDS_P2;PMS_P1;PMS_P2;Temp;Humidity;BMP_temperature;BMP_pressure;BME280_temperature;BME280_humidity;BME280_pressure;Samples;Min_cycle;Max_cycle;Signal;HPM_P1;HPM_P2
2021/04/28 00:02:11;;;;;;;7.65;2.42;;;20.30;68.20;;;;;;5087470;28;20108;-73
2021/04/28 00:04:38;;;;;;;6.00;1.88;;;20.30;68.10;;;;;;5087969;28;20016;-73
2021/04/28 00:07:04;;;;;;;6.28;3.13;;;20.30;68.10;;;;;;5086746;28;20069;-73
2021/04/28 00:09:32;;;;;;;4.28;1.75;;;20.20;68.00;;;;;;5087351;28;20020;-73
2021/04/28 00:11:59;;;;;;;5.55;1.92;;;20.20;68.00;;;;;;5087210;28;20031;-73
2021/04/28 00:14:27;;;;;;;6.45;1.80;;;20.20;68.10;;;;;;5086200;28;20126;-73
2021/04/28 00:16:53;;;;;;;5.13;1.85;;;20.20;68.00;;;;;;5084965;28;20098;-73
2021/04/28 00:19:20;;;;;;;5.57;2.13;;;20.20;68.10;;;;;;5085810;28;20030;-73
2021/04/28 00:21:46;;;;;;;6.20;2.15;;;20.20;68.10;;;;;;5085598;28;20016;-73
2021/04/28 00:24:13;;;;;;;8.63;1.85;;;20.20;68.10;;;;;;5084531;28;20514;-73
2021/04/28 00:26:40;;;;;;;3.92;2.00;;;20.20;68.10;;;;;;5084597;28;20055;-73
2021/04/28 00:29:07;;;;;;;8.27;2.63;;;20.20;68.10;;;;;;5085801;28;20043;-73
2021/04/28 00:31:34;;;;;;;10.63;2.45;;;20.20;68.10;;;;;;5084340;28;20048;-73
2021/04/28 00:34:01;;;;;;;9.07;2.75;;;20.10;68.10;;;;;;5087178;28;20537;-73
2021/04/28 00:36:28;;;;;;;5.95;1.58;;;20.10;68.10;;;;;;5086665;28;20066;-73
2021/04/28 00:38:54;;;;;;;4.43;1.50;;;20.10;68.20;;;;;;5086033;28;20495;-73
2021/04/28 00:41:21;;;;;;;8.00;1.92;;;20.10;68.20;;;;;;5088230;28;20048;-73
2021/04/28 00:43:48;;;;;;;9.40;1.90;;;20.10;68.20;;;;;;5087657;28;20028;-73
2021/04/28 00:46:14;;;;;;;6.10;1.67;;;20.10;68.20;;;;;;5083093;28;20017;-73
2021/04/28 00:48:41;;;;;;;8.68;1.92;;;20.10;68.20;;;;;;5082744;28;20042;-73
2021/04/28 00:51:08;;;;;;;5.20;2.35;;;20.10;68.20;;;;;;5085647;28;20633;-72
2021/04/28 00:53:35;;;;;;;7.15;2.67;;;20.00;68.10;;;;;;5085364;28;20073;-72
2021/04/28 00:56:03;;;;;;;14.82;2.85;;;20.00;68.10;;;;;;5083820;28;20095;-72
2021/04/28 00:58:30;;;;;;;4.95;1.85;;;20.00;68.10;;;;;;5085207;28;20607;-72
2021/04/28 01:00:57;;;;;;;5.60;1.73;;;20.00;68.10;;;;;;5084470;28;20028;-73
2021/04/28 01:04:03;;;;;;;4.45;1.65;;;20.00;68.00;;;;;;5081241;28;20371;-73
2021/04/28 01:07:09;;;;;;;8.18;2.47;;;20.00;68.10;;;;;;5086291;28;20023;-73
2021/04/28 01:09:38;;;;;;;6.95;1.85;;;20.00;68.10;;;;;;5084924;28;20029;-73
2021/04/28 01:12:07;;;;;;;9.63;2.08;;;20.00;68.10;;;;;;5083684;28;20482;-73
2021/04/28 01:14:34;;;;;;;8.05;3.40;;;20.00;68.20;;;;;;5081890;28;20070;-74
2021/04/28 01:17:02;;;;;;;5.50;2.53;;;20.00;68.20;;;;;;5082867;28;20109;-73
2021/04/28 01:19:29;;;;;;;6.85;3.50;;;20.00;68.30;;;;;;5070990;28;20016;-73
2021/04/28 01:21:56;;;;;;;10.75;3.67;;;19.90;68.30;;;;;;5083290;28;20490;-73
2021/04/28 01:24:23;;;;;;;7.93;3.60;;;19.90;68.40;;;;;;5084166;28;20015;-73
2021/04/28 01:26:53;;;;;;;7.13;3.65;;;19.90;68.40;;;;;;5081474;28;20103;-73
2021/04/28 01:29:25;;;;;;;7.55;4.07;;;19.90;68.40;;;;;;5083966;28;20004;-73
2021/04/28 01:31:53;;;;;;;8.13;3.65;;;19.90;68.50;;;;;;5084578;28;20035;-73
2021/04/28 01:34:20;;;;;;;12.00;4.55;;;19.90;68.50;;;;;;5081691;28;20020;-73
2021/04/28 01:36:47;;;;;;;12.50;4.43;;;19.90;68.50;;;;;;5071707;28;20023;-73
2021/04/28 01:39:17;;;;;;;7.47;3.90;;;19.90;68.50;;;;;;5082234;28;20021;-72
2021/04/28 01:41:46;;;;;;;12.32;3.60;;;19.90;68.60;;;;;;5085165;28;20024;-73
2021/04/28 01:44:17;;;;;;;9.85;4.22;;;19.80;68.60;;;;;;5081585;28;20015;-73
2021/04/28 01:46:45;;;;;;;5.00;3.50;;;19.90;68.70;;;;;;5085211;28;20027;-73
2021/04/28 01:49:12;;;;;;;14.40;4.43;;;19.80;68.60;;;;;;5083350;28;20073;-73
2021/04/28 01:51:40;;;;;;;6.75;3.83;;;19.90;68.70;;;;;;5086654;28;20074;-73
2021/04/28 01:54:10;;;;;;;8.98;3.10;;;19.80;68.70;;;;;;5082648;28;20109;-73
2021/04/28 01:56:37;;;;;;;11.00;3.55;;;19.80;68.70;;;;;;5083167;28;20028;-73
2021/04/28 01:59:05;;;;;;;9.25;3.67;;;19.80;68.70;;;;;;5080674;28;20107;-73
2021/04/28 02:01:33;;;;;;;11.10;3.38;;;19.80;68.80;;;;;;5085084;28;20084;-72
2021/04/28 02:04:00;;;;;;;12.80;4.85;;;19.80;68.80;;;;;;5085177;28;20020;-73
2021/04/28 02:06:26;;;;;;;13.25;3.78;;;19.80;68.90;;;;;;5085654;28;20023;-72
2021/04/28 02:08:53;;;;;;;10.18;4.15;;;19.80;68.90;;;;;;5084500;28;20458;-72
2021/04/28 02:11:19;;;;;;;9.52;4.07;;;19.80;68.90;;;;;;5083303;28;20085;-72
2021/04/28 02:13:48;;;;;;;12.32;5.22;;;19.80;68.90;;;;;;5083634;28;20032;-73
2021/04/28 02:16:15;;;;;;;13.60;3.92;;;19.80;68.90;;;;;;5083621;28;20474;-73
2021/04/28 02:18:42;;;;;;;11.85;3.95;;;19.70;68.90;;;;;;5083737;28;20016;-72
2021/04/28 02:21:09;;;;;;;9.57;3.60;;;19.70;68.90;;;;;;5084176;28;20067;-72
2021/04/28 02:23:40;;;;;;;8.45;3.50;;;19.70;68.90;;;;;;5083625;28;20364;-72
2021/04/28 02:26:06;;;;;;;9.45;4.22;;;19.70;68.90;;;;;;5080622;28;20030;-72
2021/04/28 02:28:33;;;;;;;11.27;3.65;;;19.70;68.90;;;;;;5085346;28;20107;-72
2021/04/28 02:31:00;;;;;;;14.95;4.20;;;19.70;69.00;;;;;;5081327;28;20089;-72
2021/04/28 02:33:27;;;;;;;13.07;3.60;;;19.70;69.00;;;;;;5084290;28;20556;-72
2021/04/28 02:35:58;;;;;;;12.75;4.90;;;19.70;69.00;;;;;;5085340;28;20490;-72
2021/04/28 02:38:37;;;;;;;13.05;4.55;;;19.70;69.10;;;;;;5085485;28;20359;-72
2021/04/28 02:41:05;;;;;;;10.32;3.60;;;19.70;69.10;;;;;;5083105;28;20019;-73
2021/04/28 02:43:35;;;;;;;10.23;3.28;;;19.70;69.20;;;;;;5080696;28;20468;-72
2021/04/28 02:46:03;;;;;;;11.88;5.43;;;19.60;69.20;;;;;;5083913;28;20012;-72
2021/04/28 02:48:30;;;;;;;8.18;3.35;;;19.60;69.20;;;;;;5081472;28;20443;-72
2021/04/28 02:50:57;;;;;;;11.23;3.63;;;19.60;69.30;;;;;;5086598;28;20025;-72
2021/04/28 02:53:26;;;;;;;10.35;3.70;;;19.60;69.30;;;;;;5080074;28;20376;-72
2021/04/28 02:55:58;;;;;;;14.63;5.15;;;19.60;69.40;;;;;;5086214;28;20019;-72
2021/04/28 02:58:27;;;;;;;11.57;4.00;;;19.60;69.30;;;;;;5080597;28;20027;-73
2021/04/28 03:00:56;;;;;;;10.80;3.47;;;19.60;69.30;;;;;;5083525;28;20020;-73
2021/04/28 03:03:22;;;;;;;11.73;5.20;;;19.60;69.30;;;;;;5084158;28;20012;-73
2021/04/28 03:05:51;;;;;;;14.43;4.95;;;19.60;69.40;;;;;;5083931;28;20497;-73
2021/04/28 03:08:19;;;;;;;8.63;4.68;;;19.60;69.40;;;;;;5083274;28;20025;-72
2021/04/28 03:10:47;;;;;;;13.07;4.25;;;19.60;69.40;;;;;;5085114;28;20095;-72
2021/04/28 03:13:14;;;;;;;12.68;4.10;;;19.50;69.30;;;;;;5081232;28;20491;-72
2021/04/28 03:15:41;;;;;;;16.77;7.45;;;19.60;69.40;;;;;;5069147;28;20368;-72
2021/04/28 03:18:09;;;;;;;15.10;4.75;;;19.50;69.30;;;;;;5082095;28;20024;-73
2021/04/28 03:20:36;;;;;;;10.10;5.28;;;19.50;69.30;;;;;;5083022;28;20035;-72
2021/04/28 03:23:03;;;;;;;16.85;4.40;;;19.50;69.30;;;;;;5080487;28;20012;-72
2021/04/28 03:25:31;;;;;;;12.70;5.32;;;19.50;69.30;;;;;;5085065;28;20016;-72
2021/04/28 03:27:58;;;;;;;9.52;4.00;;;19.50;69.30;;;;;;5088419;28;20032;-72
2021/04/28 03:30:24;;;;;;;14.00;4.88;;;19.50;69.30;;;;;;5083438;28;20120;-72
2021/04/28 03:32:51;;;;;;;13.50;4.55;;;19.50;69.40;;;;;;5090386;28;20032;-72
2021/04/28 03:35:17;;;;;;;18.60;6.18;;;19.40;69.40;;;;;;5083043;28;20028;-72
2021/04/28 03:37:44;;;;;;;10.95;4.03;;;19.40;69.40;;;;;;5088339;28;20024;-72
2021/04/28 03:40:11;;;;;;;15.25;5.10;;;19.40;69.40;;;;;;5061649;28;20024;-72
2021/04/28 03:42:38;;;;;;;12.23;4.72;;;19.40;69.40;;;;;;5088292;28;20028;-72
2021/04/28 03:45:06;;;;;;;9.95;4.40;;;19.40;70.00;;;;;;5085315;28;20507;-72
2021/04/28 03:47:32;;;;;;;13.40;4.70;;;19.40;69.40;;;;;;5084791;28;20107;-73
2021/04/28 03:50:00;;;;;;;17.42;4.35;;;19.40;69.40;;;;;;5087234;28;20395;-73
2021/04/28 03:52:27;;;;;;;15.07;4.57;;;19.40;69.40;;;;;;5085044;28;20020;-70
2021/04/28 03:54:53;;;;;;;15.55;4.93;;;19.40;69.50;;;;;;5087474;28;20023;-72
2021/04/28 03:57:20;;;;;;;12.40;4.00;;;19.40;69.50;;;;;;5084627;28;20052;-71
2021/04/28 03:59:46;;;;;;;12.85;4.55;;;19.40;69.50;;;;;;5087947;28;20016;-70
2021/04/28 04:02:13;;;;;;;15.90;4.13;;;19.40;69.50;;;;;;5083703;28;20080;-71
2021/04/28 04:04:39;;;;;;;13.98;7.00;;;19.30;69.40;;;;;;5089034;28;20016;-70
2021/04/28 04:07:06;;;;;;;20.98;13.73;;;19.30;69.50;;;;;;5083399;28;20016;-71
2021/04/28 04:09:32;;;;;;;17.88;10.57;;;19.30;69.40;;;;;;5085602;28;20044;-72
2021/04/28 04:11:59;;;;;;;17.27;8.50;;;19.30;69.50;;;;;;5086675;28;20012;-72
2021/04/28 04:14:25;;;;;;;13.48;7.15;;;19.30;69.50;;;;;;5085514;28;20021;-72
2021/04/28 04:16:52;;;;;;;16.15;6.15;;;19.30;69.60;;;;;;5085598;28;20031;-72
2021/04/28 04:19:19;;;;;;;12.70;5.63;;;19.30;69.60;;;;;;5087078;28;20023;-73
2021/04/28 04:21:45;;;;;;;17.27;6.78;;;19.30;69.70;;;;;;5086085;28;20035;-71
2021/04/28 04:24:12;;;;;;;18.63;9.98;;;19.20;69.60;;;;;;5089635;28;20019;-70
2021/04/28 04:26:38;;;;;;;16.23;8.60;;;19.30;69.70;;;;;;5090476;28;20022;-72
2021/04/28 04:29:05;;;;;;;19.20;7.47;;;19.30;69.70;;;;;;5088892;28;20024;-73
2021/04/28 04:31:34;;;;;;;19.70;7.07;;;19.30;69.70;;;;;;5089798;28;20040;-70
2021/04/28 04:34:01;;;;;;;12.65;7.03;;;19.20;69.70;;;;;;5090743;28;20035;-74
2021/04/28 04:36:28;;;;;;;6.95;5.20;;;19.20;69.60;;;;;;5088701;28;20023;-71
2021/04/28 04:38:54;;;;;;;13.27;5.00;;;19.20;69.50;;;;;;5088271;28;20016;-71
2021/04/28 04:41:21;;;;;;;10.15;4.53;;;19.20;69.40;;;;;;5088237;28;20479;-71
2021/04/28 04:43:47;;;;;;;7.32;3.28;;;19.20;69.40;;;;;;5090735;28;20070;-72
2021/04/28 04:46:14;;;;;;;10.30;3.67;;;19.20;70.10;;;;;;5089648;28;20655;-74
2021/04/28 04:48:41;;;;;;;10.70;3.42;;;19.20;69.30;;;;;;5089627;28;20035;-74
2021/04/28 04:51:07;;;;;;;6.75;2.83;;;19.10;69.20;;;;;;5090585;28;20056;-73
2021/04/28 04:53:34;;;;;;;8.25;2.88;;;19.20;69.10;;;;;;5089312;28;20470;-74
2021/04/28 04:56:01;;;;;;;14.25;3.25;;;19.10;69.00;;;;;;5089982;28;20023;-73
2021/04/28 04:58:28;;;;;;;5.05;2.20;;;19.20;69.10;;;;;;5089342;28;20013;-73
2021/04/28 05:00:54;;;;;;;10.40;3.15;;;19.10;69.00;;;;;;5087044;28;20023;-73
2021/04/28 05:03:21;;;;;;;12.70;2.47;;;19.10;68.90;;;;;;5086552;28;20487;-74
2021/04/28 05:05:47;;;;;;;9.80;3.10;;;19.10;68.90;;;;;;5087571;28;20062;-73
2021/04/28 05:08:53;;;;;;;11.32;2.85;;;19.10;68.90;;;;;;5088195;28;20020;-70
2021/04/28 05:11:21;;;;;;;9.75;2.42;;;19.10;68.80;;;;;;5085760;28;20104;-73
2021/04/28 05:13:47;;;;;;;6.55;3.40;;;19.10;68.80;;;;;;5070498;28;20494;-72
2021/04/28 05:16:14;;;;;;;9.88;5.45;;;19.10;68.80;;;;;;5084985;28;20505;-72
2021/04/28 05:18:40;;;;;;;11.85;6.32;;;19.10;68.80;;;;;;5085662;28;20399;-71
2021/04/28 05:21:46;;;;;;;11.88;5.65;;;19.10;68.80;;;;;;5073992;28;20016;-71
2021/04/28 05:24:13;;;;;;;9.57;3.58;;;19.10;68.70;;;;;;5081881;28;20475;-71
2021/04/28 05:26:39;;;;;;;6.15;3.17;;;19.00;68.70;;;;;;5085443;28;20016;-71
2021/04/28 05:29:06;;;;;;;5.07;2.70;;;19.00;68.60;;;;;;5080027;28;20020;-70
2021/04/28 05:31:32;;;;;;;7.45;2.67;;;19.00;68.70;;;;;;5080970;28;20045;-69
2021/04/28 05:33:59;;;;;;;6.50;2.67;;;19.00;68.60;;;;;;5082263;28;20032;-70
2021/04/28 05:36:26;;;;;;;7.63;2.83;;;19.00;68.60;;;;;;5082591;28;20109;-70
2021/04/28 05:38:59;;;;;;;7.90;2.47;;;19.00;68.70;;;;;;5083225;28;20523;-70
2021/04/28 05:41:43;;;;;;;4.20;1.63;;;19.00;68.70;;;;;;5083123;28;20052;-71
2021/04/28 05:44:10;;;;;;;8.38;2.15;;;19.00;68.70;;;;;;5069901;28;20020;-71
2021/04/28 05:46:37;;;;;;;8.02;3.67;;;19.00;68.70;;;;;;5085774;28;20020;-71
2021/04/28 05:49:04;;;;;;;7.47;3.40;;;19.00;68.80;;;;;;5084957;28;20074;-70
2021/04/28 05:51:31;;;;;;;6.43;2.88;;;19.00;68.80;;;;;;5087179;28;20024;-70
2021/04/28 05:53:58;;;;;;;9.40;2.83;;;19.00;68.90;;;;;;5081389;28;20036;-71
2021/04/28 05:56:25;;;;;;;6.97;3.05;;;19.00;68.90;;;;;;5084090;28;21683;-71
2021/04/28 05:58:51;;;;;;;7.93;3.40;;;19.00;68.90;;;;;;5085578;28;20058;-70
2021/04/28 06:01:18;;;;;;;6.18;3.80;;;19.00;68.90;;;;;;5083471;28;20024;-70
2021/04/28 06:03:45;;;;;;;7.00;3.33;;;19.00;69.60;;;;;;5083104;28;20027;-70
2021/04/28 06:06:12;;;;;;;8.30;2.75;;;19.00;69.00;;;;;;5086419;28;20360;-71
2021/04/28 06:08:39;;;;;;;4.57;1.83;;;19.00;69.00;;;;;;5087736;28;20356;-70
2021/04/28 06:11:05;;;;;;;4.22;2.05;;;19.00;69.10;;;;;;5084277;28;20388;-71
2021/04/28 06:13:32;;;;;;;4.03;1.60;;;19.00;69.10;;;;;;5086600;28;20368;-70
2021/04/28 06:15:58;;;;;;;3.28;2.00;;;19.00;69.20;;;;;;5083238;28;20488;-69
2021/04/28 06:18:25;;;;;;;5.72;1.80;;;19.00;69.30;;;;;;5086488;28;20024;-71
2021/04/28 06:20:51;;;;;;;8.73;5.18;;;19.00;69.30;;;;;;5087000;28;20016;-71
2021/04/28 06:23:18;;;;;;;14.30;7.22;;;19.00;69.40;;;;;;5088673;28;20020;-71
2021/04/28 06:25:45;;;;;;;10.93;7.30;;;19.00;70.10;;;;;;5086477;28;20363;-70
2021/04/28 06:28:12;;;;;;;5.88;4.50;;;19.00;69.50;;;;;;5087799;28;20016;-70
2021/04/28 06:30:38;;;;;;;9.55;3.80;;;19.00;69.60;;;;;;5087143;28;20036;-71
2021/04/28 06:33:05;;;;;;;7.05;3.20;;;19.00;69.70;;;;;;5082761;28;20391;-70
2021/04/28 06:35:31;;;;;;;7.25;2.45;;;19.00;69.80;;;;;;5088766;28;20016;-71
2021/04/28 06:37:58;;;;;;;6.07;1.75;;;19.00;69.90;;;;;;5087896;28;20046;-71
2021/04/28 06:40:25;;;;;;;4.32;2.28;;;19.00;70.00;;;;;;5085090;28;20020;-70
2021/04/28 06:42:51;;;;;;;6.32;2.03;;;19.00;70.00;;;;;;5087998;28;20012;-71
2021/04/28 06:45:18;;;;;;;2.95;1.30;;;19.00;70.10;;;;;;5088443;28;20024;-70
2021/04/28 06:47:45;;;;;;;4.28;2.00;;;19.00;70.20;;;;;;5088465;28;20032;-72
2021/04/28 06:50:11;;;;;;;5.05;1.50;;;19.00;70.30;;;;;;5087454;28;20023;-71
2021/04/28 06:52:42;;;;;;;5.07;1.00;;;19.10;70.40;;;;;;5088261;28;20034;-71
2021/04/28 06:55:10;;;;;;;3.72;1.27;;;19.10;70.50;;;;;;5087488;28;20039;-72
2021/04/28 06:57:37;;;;;;;2.90;1.10;;;19.10;70.60;;;;;;5088561;28;20020;-71
2021/04/28 07:00:05;;;;;;;4.63;1.13;;;19.10;70.60;;;;;;5090276;28;20028;-71
2021/04/28 07:02:32;;;;;;;4.30;1.05;;;19.10;70.60;;;;;;5090515;28;20095;-71
2021/04/28 07:04:58;;;;;;;4.18;0.98;;;19.10;70.60;;;;;;5091695;28;20024;-71
2021/04/28 07:07:25;;;;;;;2.78;0.80;;;19.10;70.60;;;;;;5073472;28;20387;-71
2021/04/28 07:09:51;;;;;;;8.68;2.50;;;19.10;70.70;;;;;;5092255;28;20121;-72
2021/04/28 07:12:18;;;;;;;3.55;1.73;;;19.20;70.70;;;;;;5091075;28;20598;-71
2021/04/28 07:14:44;;;;;;;7.25;3.58;;;19.20;70.60;;;;;;5092327;28;20020;-71
2021/04/28 07:17:11;;;;;;;4.82;2.08;;;19.20;70.60;;;;;;5090964;28;20095;-70
2021/04/28 07:19:38;;;;;;;3.47;1.67;;;19.30;70.70;;;;;;5092132;28;20015;-71
2021/04/28 07:22:05;;;;;;;5.70;1.58;;;19.20;70.60;;;;;;5090552;28;20483;-71
2021/04/28 07:24:31;;;;;;;4.03;1.20;;;19.30;70.50;;;;;;5090194;28;20016;-71
2021/04/28 07:26:58;;;;;;;3.08;1.13;;;19.30;70.40;;;;;;5091281;28;20086;-71
2021/04/28 07:29:24;;;;;;;2.75;1.10;;;19.30;70.30;;;;;;5090097;28;20021;-72
2021/04/28 07:31:51;;;;;;;4.43;0.90;;;19.40;70.30;;;;;;5091420;28;20048;-71
2021/04/28 07:34:17;;;;;;;3.00;1.10;;;19.40;70.20;;;;;;5091361;28;20008;-71
2021/04/28 07:36:45;;;;;;;20.20;2.25;;;19.40;70.10;;;;;;5089256;28;20012;-71
2021/04/28 07:39:51;;;;;;;3.05;1.20;;;19.40;70.10;;;;;;5091377;28;20460;-72
2021/04/28 07:42:57;;;;;;;3.60;1.45;;;19.50;70.10;;;;;;5090164;28;20021;-73
2021/04/28 07:46:03;;;;;;;6.55;2.08;;;19.50;70.00;;;;;;5089604;28;20113;-70
2021/04/28 07:48:30;;;;;;;5.43;3.97;;;19.50;70.10;;;;;;5089159;28;20406;-71
2021/04/28 07:51:00;;;;;;;4.60;2.90;;;19.50;70.00;;;;;;5082825;28;20046;-71
2021/04/28 07:53:27;;;;;;;5.90;2.30;;;19.60;70.00;;;;;;5090339;28;20119;-71
2021/04/28 07:55:54;;;;;;;4.85;1.50;;;19.60;69.90;;;;;;5090521;28;20024;-71
2021/04/28 07:58:21;;;;;;;5.68;1.48;;;19.60;69.80;;;;;;5091396;28;20046;-71
2021/04/28 08:00:48;;;;;;;4.43;1.42;;;19.70;69.70;;;;;;5091081;28;20051;-72
2021/04/28 08:03:14;;;;;;;2.65;0.98;;;19.70;69.60;;;;;;5090703;28;20023;-74
2021/04/28 08:05:41;;;;;;;5.15;1.67;;;19.70;69.70;;;;;;5077890;28;20115;-75
2021/04/28 08:08:07;;;;;;;7.65;4.82;;;19.80;69.70;;;;;;5090123;28;20019;-74
2021/04/28 08:10:34;;;;;;;12.90;6.10;;;19.80;69.60;;;;;;5089950;28;20048;-72
2021/04/28 08:13:01;;;;;;;8.77;5.35;;;19.80;69.50;;;;;;5087010;28;20032;-74
2021/04/28 08:15:28;;;;;;;6.93;4.32;;;19.80;69.30;;;;;;5090781;28;20095;-72
2021/04/28 08:17:54;;;;;;;10.70;3.92;;;19.80;69.10;;;;;;5090635;28;20030;-75
2021/04/28 08:20:21;;;;;;;8.30;3.63;;;19.90;69.00;;;;;;5089698;28;20421;-76
2021/04/28 08:22:48;;;;;;;6.60;2.00;;;19.90;68.80;;;;;;5089000;28;20077;-77
2021/04/28 08:25:16;;;;;;;3.20;1.58;;;19.90;68.60;;;;;;5072092;28;20012;-74
2021/04/28 08:27:42;;;;;;;6.55;1.35;;;19.90;68.50;;;;;;5090819;28;20386;-73
2021/04/28 08:30:11;;;;;;;10.05;1.60;;;20.00;68.50;;;;;;5089601;28;20020;-74
2021/04/28 08:32:38;;;;;;;3.15;1.23;;;20.00;68.50;;;;;;5090725;28;20028;-74
2021/04/28 08:35:06;;;;;;;3.90;1.20;;;20.00;68.50;;;;;;5088092;28;20008;-74
2021/04/28 08:37:33;;;;;;;3.35;1.08;;;20.10;68.50;;;;;;5087761;28;20380;-75
2021/04/28 08:39:59;;;;;;;2.53;0.95;;;20.10;68.60;;;;;;5088119;28;20024;-75
2021/04/28 08:42:26;;;;;;;4.47;0.98;;;20.10;68.70;;;;;;5090142;28;20020;-74
2021/04/28 08:44:53;;;;;;;1.95;1.02;;;20.20;69.00;;;;;;5089175;28;20016;-74
2021/04/28 08:47:21;;;;;;;2.33;0.82;;;20.20;69.10;;;;;;5089274;28;20087;-73
2021/04/28 08:49:47;;;;;;;2.63;1.00;;;20.20;69.20;;;;;;5090678;28;20024;-74
2021/04/28 08:52:15;;;;;;;4.10;2.55;;;20.20;69.10;;;;;;5089736;28;20032;-76
2021/04/28 08:54:42;;;;;;;3.55;1.15;;;20.20;69.20;;;;;;5089958;28;20095;-73
2021/04/28 08:57:10;;;;;;;4.05;1.10;;;20.30;69.30;;;;;;5088613;28;20035;-72
2021/04/28 08:59:38;;;;;;;5.53;1.00;;;20.20;69.50;;;;;;5088428;28;20047;-72
2021/04/28 09:02:23;;;;;;;1.95;1.10;;;20.30;69.80;;;;;;5085261;28;20024;-73
2021/04/28 09:05:07;;;;;;;2.03;0.90;;;20.30;70.10;;;;;;5087166;28;20103;-75
2021/04/28 09:07:34;;;;;;;3.35;0.95;;;20.30;69.90;;;;;;5090509;28;20082;-73
2021/04/28 09:10:05;;;;;;;5.07;0.88;;;20.30;69.60;;;;;;5090167;28;20066;-75
2021/04/28 09:12:32;;;;;;;2.20;0.77;;;20.30;69.20;;;;;;5089403;28;20020;-73
2021/04/28 09:14:58;;;;;;;1.35;0.60;;;20.40;69.00;;;;;;5090076;28;20069;-72
2021/04/28 09:17:25;;;;;;;1.00;0.50;;;20.40;68.30;;;;;;5087089;28;20509;-71
2021/04/28 09:20:16;;;;;;;7.95;0.90;;;20.40;67.60;;;;;;5089966;28;20024;-72
2021/04/28 09:22:50;;;;;;;2.03;0.70;;;20.50;66.80;;;;;;5088352;28;20521;-75
2021/04/28 09:25:52;;;;;;;2.65;0.70;;;20.60;66.40;;;;;;5072368;28;20525;-75
2021/04/28 09:28:33;;;;;;;4.60;0.73;;;20.60;65.90;;;;;;5089941;28;20417;-76
2021/04/28 09:31:06;;;;;;;4.60;0.80;;;20.60;65.00;;;;;;5085080;28;20048;-74
2021/04/28 09:33:42;;;;;;;1.85;0.40;;;20.70;64.40;;;;;;5088949;28;20024;-77
2021/04/28 09:36:24;;;;;;;4.95;0.73;;;20.80;64.30;;;;;;5089543;28;20081;-74
2021/04/28 09:39:04;;;;;;;3.10;1.30;;;20.80;63.90;;;;;;5088603;28;20019;-74
2021/04/28 09:41:38;;;;;;;7.65;0.68;;;20.80;63.30;;;;;;5088110;28;20395;-74
2021/04/28 09:44:17;;;;;;;7.38;0.85;;;20.80;62.80;;;;;;5086352;28;20017;-75
2021/04/28 09:47:22;;;;;;;3.10;0.70;;;20.90;62.70;;;;;;5089274;28;20020;-74
2021/04/28 09:49:56;;;;;;;4.80;0.70;;;20.90;62.20;;;;;;5087248;28;20035;-74
2021/04/28 09:52:24;;;;;;;3.42;1.15;;;21.00;60.60;;;;;;5088258;28;20028;-73
2021/04/28 09:54:52;;;;;;;3.22;1.05;;;21.00;60.20;;;;;;5070000;28;20493;-73
2021/04/28 09:57:33;;;;;;;3.45;0.63;;;21.00;60.40;;;;;;5086249;28;20020;-75
2021/04/28 09:59:59;;;;;;;6.72;1.23;;;21.10;60.50;;;;;;5088342;28;20020;-75
2021/04/28 10:02:31;;;;;;;4.10;0.88;;;21.10;60.80;;;;;;5089484;28;20504;-73
2021/04/28 10:05:40;;;;;;;4.95;0.73;;;21.10;60.60;;;;;;5085312;28;20038;-73
2021/04/28 10:08:10;;;;;;;2.42;0.70;;;21.20;60.20;;;;;;5086526;28;20032;-73
2021/04/28 10:11:16;;;;;;;4.05;1.33;;;21.20;60.10;;;;;;5088071;28;20035;-74
2021/04/28 10:14:23;;;;;;;5.20;0.77;;;21.20;60.00;;;;;;5087166;28;20040;-76
2021/04/28 10:17:29;;;;;;;2.50;0.43;;;21.30;59.90;;;;;;5087474;28;20407;-74
2021/04/28 10:20:35;;;;;;;1.85;0.65;;;21.30;59.10;;;;;;5087160;28;20038;-75
2021/04/28 10:23:42;;;;;;;1.75;0.55;;;21.30;59.00;;;;;;5084310;28;20020;-74
2021/04/28 10:26:08;;;;;;;2.08;0.60;;;21.40;58.70;;;;;;5085023;28;20031;-75
2021/04/28 10:28:35;;;;;;;4.03;0.55;;;21.40;59.20;;;;;;5088269;28;20031;-77
2021/04/28 10:31:04;;;;;;;2.70;0.80;;;21.50;59.00;;;;;;5085703;28;20101;-76
2021/04/28 10:33:35;;;;;;;4.63;1.20;;;21.50;58.70;;;;;;5087918;28;20032;-74
2021/04/28 10:36:05;;;;;;;6.10;1.02;;;21.50;58.80;;;;;;5089455;28;20398;-74
2021/04/28 10:38:33;;;;;;;3.70;0.90;;;21.60;58.70;;;;;;5090224;28;20019;-85
2021/04/28 10:41:00;;;;;;;2.97;0.90;;;21.60;58.60;;;;;;5087571;28;20084;-74
2021/04/28 10:43:37;;;;;;;5.13;1.88;;;21.70;58.10;;;;;;5087277;28;20510;-75
2021/04/28 10:46:20;;;;;;;11.32;4.93;;;21.70;57.40;;;;;;5086653;28;20020;-75
2021/04/28 10:48:47;;;;;;;7.00;2.55;;;21.70;57.40;;;;;;5086536;28;20016;-73
2021/04/28 10:51:34;;;;;;;4.07;2.22;;;21.80;57.40;;;;;;5087934;28;20463;-75
2021/04/28 10:54:24;;;;;;;6.80;1.65;;;21.80;57.30;;;;;;5067886;28;20067;-74
2021/04/28 10:57:01;;;;;;;2.97;1.35;;;21.80;57.10;;;;;;5086490;28;20012;-74
2021/04/28 10:59:41;;;;;;;10.07;1.85;;;21.90;57.20;;;;;;5088237;28;20016;-74
2021/04/28 11:02:09;;;;;;;3.08;1.25;;;21.90;57.10;;;;;;5067356;28;20020;-74
2021/04/28 11:04:37;;;;;;;5.70;1.20;;;21.90;57.10;;;;;;5069278;28;20032;-76
2021/04/28 11:07:04;;;;;;;3.83;1.38;;;22.00;57.00;;;;;;5053467;28;20517;-75
2021/04/28 11:09:30;;;;;;;4.40;1.60;;;22.00;56.80;;;;;;5083998;28;20093;-73
2021/04/28 11:11:59;;;;;;;7.60;1.42;;;22.00;56.90;;;;;;5087183;28;20039;-76
2021/04/28 11:14:30;;;;;;;1.73;0.80;;;22.10;56.90;;;;;;5068856;28;20060;-70
2021/04/28 11:16:59;;;;;;;2.58;0.80;;;22.10;56.20;;;;;;5088013;28;20616;-73
2021/04/28 11:19:27;;;;;;;5.18;0.93;;;22.10;55.50;;;;;;5084364;28;20106;-71
2021/04/28 11:22:16;;;;;;;4.90;1.02;;;22.20;55.80;;;;;;5087904;28;20024;-74
2021/04/28 11:24:59;;;;;;;4.95;1.05;;;22.20;55.80;;;;;;5087838;28;20043;-72
2021/04/28 11:27:53;;;;;;;4.57;0.80;;;22.30;55.50;;;;;;5087417;28;20012;-75
2021/04/28 11:30:19;;;;;;;3.45;1.67;;;22.30;55.60;;;;;;5085896;28;20545;-72
2021/04/28 11:33:27;;;;;;;3.45;0.73;;;22.40;55.50;;;;;;5083085;28;20111;-74
2021/04/28 11:35:54;;;;;;;2.58;1.00;;;22.40;55.50;;;;;;5086024;28;20491;-74
2021/04/28 11:39:00;;;;;;;4.63;0.98;;;22.40;55.10;;;;;;5087095;28;20020;-76
2021/04/28 11:41:27;;;;;;;4.97;1.00;;;22.40;55.20;;;;;;5080440;28;20061;-74
2021/04/28 11:43:57;;;;;;;2.53;0.80;;;22.50;55.10;;;;;;5089185;28;20031;-72
2021/04/28 11:46:29;;;;;;;3.05;1.17;;;22.50;54.90;;;;;;5086401;28;20027;-73
2021/04/28 11:48:58;;;;;;;2.83;0.90;;;22.50;54.30;;;;;;5092276;28;20154;-71
2021/04/28 11:51:30;;;;;;;3.42;1.00;;;22.60;54.60;;;;;;5077389;28;20367;-72
2021/04/28 11:54:03;;;;;;;2.55;0.88;;;22.60;54.40;;;;;;5086426;28;20032;-71
2021/04/28 11:56:33;;;;;;;2.70;0.77;;;22.60;54.70;;;;;;5081644;28;20024;-73
2021/04/28 11:59:01;;;;;;;4.95;0.98;;;22.70;54.40;;;;;;5090117;28;20379;-72
2021/04/28 12:01:31;;;;;;;3.25;0.95;;;22.70;54.10;;;;;;5089570;28;20517;-71
2021/04/28 12:04:08;;;;;;;4.57;0.82;;;22.70;54.10;;;;;;5087898;28;21116;-72
2021/04/28 12:06:38;;;;;;;7.90;1.40;;;22.70;54.30;;;;;;5089730;28;20024;-73
2021/04/28 12:09:23;;;;;;;3.95;0.93;;;22.70;54.30;;;;;;5088425;28;20513;-74
2021/04/28 12:12:09;;;;;;;5.00;1.10;;;22.80;54.10;;;;;;5081145;28;20028;-73
2021/04/28 12:14:37;;;;;;;5.38;1.10;;;22.70;54.00;;;;;;5084645;28;20085;-73
2021/04/28 12:17:03;;;;;;;2.05;0.82;;;22.80;54.30;;;;;;5085564;28;20028;-73
2021/04/28 12:19:31;;;;;;;1.88;1.10;;;22.80;54.10;;;;;;5085738;28;20506;-73
2021/04/28 12:22:03;;;;;;;4.00;0.77;;;22.80;53.80;;;;;;5073470;28;20024;-72
2021/04/28 12:24:38;;;;;;;9.50;1.67;;;22.80;53.60;;;;;;5084968;28;20031;-74
2021/04/28 12:27:13;;;;;;;3.45;0.70;;;22.80;53.40;;;;;;5084872;28;20496;-73
2021/04/28 12:29:45;;;;;;;2.83;0.90;;;22.80;53.10;;;;;;5088532;28;20024;-72
2021/04/28 12:32:12;;;;;;;2.90;0.63;;;22.80;52.90;;;;;;5069760;28;20426;-72
2021/04/28 12:34:43;;;;;;;5.38;0.75;;;22.90;52.90;;;;;;5090277;28;20098;-73
2021/04/28 12:37:16;;;;;;;3.90;0.98;;;22.90;52.80;;;;;;5084413;28;20052;-72
2021/04/28 12:39:54;;;;;;;5.20;1.50;;;22.90;52.60;;;;;;5088807;28;20059;-73
2021/04/28 12:42:36;;;;;;;5.78;2.10;;;22.90;52.70;;;;;;5089896;28;20016;-74
2021/04/28 12:45:21;;;;;;;5.38;1.73;;;22.90;52.60;;;;;;5084671;28;20081;-72
2021/04/28 12:47:48;;;;;;;2.60;1.48;;;22.90;52.40;;;;;;5088189;28;20027;-73
2021/04/28 12:50:20;;;;;;;3.08;1.33;;;22.90;52.10;;;;;;5082721;28;20664;-71
2021/04/28 12:52:48;;;;;;;2.47;2.08;;;22.90;52.30;;;;;;5089452;28;20164;-73
2021/04/28 12:55:29;;;;;;;1.88;0.82;;;22.90;52.60;;;;;;5089733;28;20032;-72
2021/04/28 12:58:04;;;;;;;1.10;0.60;;;22.90;52.70;;;;;;5085683;28;20378;-73
2021/04/28 13:00:34;;;;;;;3.42;0.75;;;22.90;52.80;;;;;;5083140;28;20031;-73
2021/04/28 13:03:09;;;;;;;6.18;0.85;;;22.90;52.90;;;;;;5083514;28;20089;-73